sensor_id;sensor_type;location;lat;lon;timestamp;P1;durP1;ratioP1;P2;durP2;ratioP2
13590;SDS011;6866;50.778;7.206;2023-09-18T00:00:21;12.05;;;6.38;;
13590;SDS011;6866;50.778;7.206;2023-09-18T00:02:47;10.40;;;6.60;;
13590;SDS011;6866;50.778;7.206;2023-09-18T00:05:13;11.68;;;6.38;;
13590;SDS011;6866;50.778;7.206;2023-09-18T00:07:41;13.57;;;6.78;;
13590;SDS011;6866;50.778;7.206;2023-09-18T00:10:09;13.27;;;6.03;;
13590;SDS011;6866;50.778;7.206;2023-09-18T00:12:35;12.70;;;6.30;;
13590;SDS011;6866;50.778;7.206;2023-09-18T00:15:00;13.55;;;6.32;;
13590;SDS011;6866;50.778;7.206;2023-09-18T00:17:26;11.25;;;6.55;;
13590;SDS011;6866;50.778;7.206;2023-09-18T00:19:52;13.57;;;6.35;;
13590;SDS011;6866;50.778;7.206;2023-09-18T00:22:18;12.43;;;6.13;;
13590;SDS011;6866;50.778;7.206;2023-09-18T00:24:44;14.75;;;6.68;;
13590;SDS011;6866;50.778;7.206;2023-09-18T00:27:09;13.10;;;6.50;;
13590;SDS011;6866;50.778;7.206;2023-09-18T00:29:36;10.95;;;6.20;;
13590;SDS011;6866;50.778;7.206;2023-09-18T00:32:01;13.35;;;7.07;;
13590;SDS011;6866;50.778;7.206;2023-09-18T00:34:28;14.75;;;6.68;;
13590;SDS011;6866;50.778;7.206;2023-09-18T00:36:54;12.95;;;6.47;;
13590;SDS011;6866;50.778;7.206;2023-09-18T00:39:20;12.13;;;6.35;;
13590;SDS011;6866;50.778;7.206;2023-09-18T00:41:45;17.08;;;6.72;;
13590;SDS011;6866;50.778;7.206;2023-09-18T00:44:14;13.23;;;6.30;;
13590;SDS011;6866;50.778;7.206;2023-09-18T00:46:39;11.30;;;6.45;;
13590;SDS011;6866;50.778;7.206;2023-09-18T00:49:05;10.57;;;6.32;;
13590;SDS011;6866;50.778;7.206;2023-09-18T00:51:31;13.77;;;6.70;;
13590;SDS011;6866;50.778;7.206;2023-09-18T00:53:57;12.20;;;6.45;;
13590;SDS011;6866;50.778;7.206;2023-09-18T00:56:24;10.00;;;6.03;;
13590;SDS011;6866;50.778;7.206;2023-09-18T00:58:50;13.13;;;6.55;;
13590;SDS011;6866;50.778;7.206;2023-09-18T01:03:51;10.98;;;6.13;;
13590;SDS011;6866;50.778;7.206;2023-09-18T01:06:18;10.40;;;5.80;;
13590;SDS011;6866;50.778;7.206;2023-09-18T01:08:46;11.90;;;6.13;;
13590;SDS011;6866;50.778;7.206;2023-09-18T01:11:30;14.90;;;6.60;;
13590;SDS011;6866;50.778;7.206;2023-09-18T01:16:53;13.95;;;6.35;;
13590;SDS011;6866;50.778;7.206;2023-09-18T01:19:39;11.60;;;6.65;;
13590;SDS011;6866;50.778;7.206;2023-09-18T01:22:13;13.60;;;6.65;;
13590;SDS011;6866;50.778;7.206;2023-09-18T01:24:41;14.65;;;6.53;;
13590;SDS011;6866;50.778;7.206;2023-09-18T01:27:08;12.13;;;6.60;;
13590;SDS011;6866;50.778;7.206;2023-09-18T01:29:35;14.77;;;6.10;;
13590;SDS011;6866;50.778;7.206;2023-09-18T01:32:01;14.13;;;6.90;;
13590;SDS011;6866;50.778;7.206;2023-09-18T01:34:28;15.60;;;6.53;;
13590;SDS011;6866;50.778;7.206;2023-09-18T01:37:01;14.20;;;6.60;;
13590;SDS011;6866;50.778;7.206;2023-09-18T01:39:29;12.65;;;6.00;;
13590;SDS011;6866;50.778;7.206;2023-09-18T01:41:58;13.43;;;6.30;;
13590;SDS011;6866;50.778;7.206;2023-09-18T01:44:25;11.63;;;5.70;;
13590;SDS011;6866;50.778;7.206;2023-09-18T01:46:51;13.35;;;6.28;;
13590;SDS011;6866;50.778;7.206;2023-09-18T01:49:54;10.68;;;5.93;;
13590;SDS011;6866;50.778;7.206;2023-09-18T01:52:12;14.60;;;5.82;;
13590;SDS011;6866;50.778;7.206;2023-09-18T01:54:38;9.75;;;5.78;;
13590;SDS011;6866;50.778;7.206;2023-09-18T01:57:04;9.68;;;5.65;;
13590;SDS011;6866;50.778;7.206;2023-09-18T01:59:30;14.98;;;6.57;;
13590;SDS011;6866;50.778;7.206;2023-09-18T02:01:55;12.95;;;5.40;;
13590;SDS011;6866;50.778;7.206;2023-09-18T02:04:21;12.15;;;5.32;;
13590;SDS011;6866;50.778;7.206;2023-09-18T02:06:48;9.40;;;5.70;;
13590;SDS011;6866;50.778;7.206;2023-09-18T02:09:15;10.18;;;5.32;;
13590;SDS011;6866;50.778;7.206;2023-09-18T02:11:42;12.10;;;5.43;;
13590;SDS011;6866;50.778;7.206;2023-09-18T02:14:08;14.07;;;5.13;;
13590;SDS011;6866;50.778;7.206;2023-09-18T02:16:37;8.07;;;4.50;;
13590;SDS011;6866;50.778;7.206;2023-09-18T02:19:07;12.50;;;5.07;;
13590;SDS011;6866;50.778;7.206;2023-09-18T02:21:34;12.23;;;5.18;;
13590;SDS011;6866;50.778;7.206;2023-09-18T02:24:00;10.90;;;4.70;;
13590;SDS011;6866;50.778;7.206;2023-09-18T02:26:26;13.13;;;4.50;;
13590;SDS011;6866;50.778;7.206;2023-09-18T02:28:53;13.38;;;4.70;;
13590;SDS011;6866;50.778;7.206;2023-09-18T02:31:19;14.27;;;4.68;;
13590;SDS011;6866;50.778;7.206;2023-09-18T02:33:45;14.65;;;4.53;;
13590;SDS011;6866;50.778;7.206;2023-09-18T02:36:11;16.50;;;5.18;;
13590;SDS011;6866;50.778;7.206;2023-09-18T02:38:37;15.45;;;4.25;;
13590;SDS011;6866;50.778;7.206;2023-09-18T02:41:03;13.77;;;4.75;;
13590;SDS011;6866;50.778;7.206;2023-09-18T02:43:29;10.68;;;4.38;;
13590;SDS011;6866;50.778;7.206;2023-09-18T02:45:54;12.23;;;4.78;;
13590;SDS011;6866;50.778;7.206;2023-09-18T02:48:20;12.50;;;4.78;;
13590;SDS011;6866;50.778;7.206;2023-09-18T02:50:45;10.95;;;5.15;;
13590;SDS011;6866;50.778;7.206;2023-09-18T02:53:21;12.65;;;5.95;;
13590;SDS011;6866;50.778;7.206;2023-09-18T02:55:49;12.38;;;5.40;;
13590;SDS011;6866;50.778;7.206;2023-09-18T02:58:16;14.80;;;5.57;;
13590;SDS011;6866;50.778;7.206;2023-09-18T03:00:42;13.82;;;5.35;;
13590;SDS011;6866;50.778;7.206;2023-09-18T03:03:08;11.30;;;5.22;;
13590;SDS011;6866;50.778;7.206;2023-09-18T03:05:34;15.70;;;5.22;;
13590;SDS011;6866;50.778;7.206;2023-09-18T03:07:59;16.52;;;5.70;;
13590;SDS011;6866;50.778;7.206;2023-09-18T03:10:25;15.93;;;5.47;;
13590;SDS011;6866;50.778;7.206;2023-09-18T03:12:50;14.15;;;5.65;;
13590;SDS011;6866;50.778;7.206;2023-09-18T03:15:16;14.48;;;5.28;;
13590;SDS011;6866;50.778;7.206;2023-09-18T03:17:41;13.50;;;4.60;;
13590;SDS011;6866;50.778;7.206;2023-09-18T03:20:07;11.73;;;4.57;;
13590;SDS011;6866;50.778;7.206;2023-09-18T03:22:34;14.00;;;5.03;;
13590;SDS011;6866;50.778;7.206;2023-09-18T03:25:00;10.93;;;4.40;;
13590;SDS011;6866;50.778;7.206;2023-09-18T03:27:25;13.63;;;4.43;;
13590;SDS011;6866;50.778;7.206;2023-09-18T03:29:57;16.83;;;4.40;;
13590;SDS011;6866;50.778;7.206;2023-09-18T03:32:22;13.32;;;4.32;;
13590;SDS011;6866;50.778;7.206;2023-09-18T03:34:50;11.98;;;4.05;;
13590;SDS011;6866;50.778;7.206;2023-09-18T03:37:16;13.88;;;4.07;;
13590;SDS011;6866;50.778;7.206;2023-09-18T03:39:42;9.23;;;3.67;;
13590;SDS011;6866;50.778;7.206;2023-09-18T03:42:07;16.13;;;4.07;;
13590;SDS011;6866;50.778;7.206;2023-09-18T03:44:33;12.35;;;3.90;;
13590;SDS011;6866;50.778;7.206;2023-09-18T03:46:58;12.70;;;3.85;;
13590;SDS011;6866;50.778;7.206;2023-09-18T03:49:23;15.85;;;3.67;;
13590;SDS011;6866;50.778;7.206;2023-09-18T03:51:49;15.82;;;3.25;;
13590;SDS011;6866;50.778;7.206;2023-09-18T03:54:14;14.05;;;3.70;;
13590;SDS011;6866;50.778;7.206;2023-09-18T03:56:40;14.52;;;3.78;;
13590;SDS011;6866;50.778;7.206;2023-09-18T03:59:06;11.02;;;3.78;;
13590;SDS011;6866;50.778;7.206;2023-09-18T04:01:31;15.05;;;3.92;;
13590;SDS011;6866;50.778;7.206;2023-09-18T04:03:57;13.93;;;4.35;;
13590;SDS011;6866;50.778;7.206;2023-09-18T04:06:23;12.52;;;3.47;;
13590;SDS011;6866;50.778;7.206;2023-09-18T04:08:51;11.93;;;3.58;;
13590;SDS011;6866;50.778;7.206;2023-09-18T04:11:17;17.38;;;3.63;;
13590;SDS011;6866;50.778;7.206;2023-09-18T04:13:44;14.45;;;3.50;;
13590;SDS011;6866;50.778;7.206;2023-09-18T04:16:10;13.45;;;3.60;;
13590;SDS011;6866;50.778;7.206;2023-09-18T04:18:38;13.90;;;3.63;;
13590;SDS011;6866;50.778;7.206;2023-09-18T04:21:04;14.07;;;3.67;;
13590;SDS011;6866;50.778;7.206;2023-09-18T04:23:29;10.02;;;3.45;;
13590;SDS011;6866;50.778;7.206;2023-09-18T04:25:55;13.48;;;3.30;;
13590;SDS011;6866;50.778;7.206;2023-09-18T04:28:23;15.82;;;3.33;;
13590;SDS011;6866;50.778;7.206;2023-09-18T04:30:48;12.98;;;4.10;;
13590;SDS011;6866;50.778;7.206;2023-09-18T04:33:14;13.15;;;3.70;;
13590;SDS011;6866;50.778;7.206;2023-09-18T04:35:40;17.88;;;3.97;;
13590;SDS011;6866;50.778;7.206;2023-09-18T04:38:06;14.27;;;4.28;;
13590;SDS011;6866;50.778;7.206;2023-09-18T04:40:35;11.73;;;3.20;;
13590;SDS011;6866;50.778;7.206;2023-09-18T04:43:01;11.90;;;3.60;;
13590;SDS011;6866;50.778;7.206;2023-09-18T04:45:29;13.13;;;3.38;;
13590;SDS011;6866;50.778;7.206;2023-09-18T04:47:55;17.00;;;3.50;;
13590;SDS011;6866;50.778;7.206;2023-09-18T04:50:21;10.68;;;3.28;;
13590;SDS011;6866;50.778;7.206;2023-09-18T04:52:47;14.73;;;3.60;;
13590;SDS011;6866;50.778;7.206;2023-09-18T04:55:13;11.30;;;3.60;;
13590;SDS011;6866;50.778;7.206;2023-09-18T04:57:39;10.20;;;3.47;;
13590;SDS011;6866;50.778;7.206;2023-09-18T05:00:05;12.40;;;3.35;;
13590;SDS011;6866;50.778;7.206;2023-09-18T05:02:37;13.02;;;3.50;;
13590;SDS011;6866;50.778;7.206;2023-09-18T05:05:03;14.25;;;3.63;;
13590;SDS011;6866;50.778;7.206;2023-09-18T05:07:29;10.70;;;3.20;;
13590;SDS011;6866;50.778;7.206;2023-09-18T05:09:55;12.00;;;3.30;;
13590;SDS011;6866;50.778;7.206;2023-09-18T05:12:21;11.82;;;3.40;;
13590;SDS011;6866;50.778;7.206;2023-09-18T05:14:47;8.90;;;2.90;;
13590;SDS011;6866;50.778;7.206;2023-09-18T05:17:14;12.38;;;3.25;;
13590;SDS011;6866;50.778;7.206;2023-09-18T05:19:41;10.35;;;3.45;;
13590;SDS011;6866;50.778;7.206;2023-09-18T05:22:10;11.00;;;3.10;;
13590;SDS011;6866;50.778;7.206;2023-09-18T05:24:37;13.25;;;3.40;;
13590;SDS011;6866;50.778;7.206;2023-09-18T05:27:03;11.13;;;3.17;;
13590;SDS011;6866;50.778;7.206;2023-09-18T05:29:31;16.05;;;3.58;;
13590;SDS011;6866;50.778;7.206;2023-09-18T05:31:56;10.25;;;3.30;;
13590;SDS011;6866;50.778;7.206;2023-09-18T05:34:22;12.55;;;3.30;;
13590;SDS011;6866;50.778;7.206;2023-09-18T05:36:48;11.50;;;2.90;;
13590;SDS011;6866;50.778;7.206;2023-09-18T05:39:13;9.38;;;3.50;;
13590;SDS011;6866;50.778;7.206;2023-09-18T05:41:39;9.23;;;3.20;;
13590;SDS011;6866;50.778;7.206;2023-09-18T05:44:05;9.45;;;3.30;;
13590;SDS011;6866;50.778;7.206;2023-09-18T05:46:33;8.45;;;3.10;;
13590;SDS011;6866;50.778;7.206;2023-09-18T05:48:59;10.57;;;2.95;;
13590;SDS011;6866;50.778;7.206;2023-09-18T05:51:25;14.43;;;3.42;;
13590;SDS011;6866;50.778;7.206;2023-09-18T05:53:51;11.02;;;3.20;;
13590;SDS011;6866;50.778;7.206;2023-09-18T05:56:17;12.50;;;3.25;;
13590;SDS011;6866;50.778;7.206;2023-09-18T05:58:42;10.88;;;3.42;;
13590;SDS011;6866;50.778;7.206;2023-09-18T06:01:08;8.75;;;2.83;;
13590;SDS011;6866;50.778;7.206;2023-09-18T06:03:34;9.45;;;2.60;;
13590;SDS011;6866;50.778;7.206;2023-09-18T06:06:03;12.15;;;3.08;;
13590;SDS011;6866;50.778;7.206;2023-09-18T06:08:32;9.10;;;2.88;;
13590;SDS011;6866;50.778;7.206;2023-09-18T06:10:58;10.55;;;2.83;;
13590;SDS011;6866;50.778;7.206;2023-09-18T06:13:24;11.75;;;3.10;;
13590;SDS011;6866;50.778;7.206;2023-09-18T06:15:51;10.55;;;3.17;;
13590;SDS011;6866;50.778;7.206;2023-09-18T06:18:19;11.00;;;2.75;;
13590;SDS011;6866;50.778;7.206;2023-09-18T06:20:48;12.00;;;2.70;;
13590;SDS011;6866;50.778;7.206;2023-09-18T06:23:14;8.52;;;2.25;;
13590;SDS011;6866;50.778;7.206;2023-09-18T06:25:40;6.57;;;2.33;;
13590;SDS011;6866;50.778;7.206;2023-09-18T06:28:06;11.73;;;2.55;;
13590;SDS011;6866;50.778;7.206;2023-09-18T06:30:32;8.18;;;2.33;;
13590;SDS011;6866;50.778;7.206;2023-09-18T06:32:58;4.68;;;1.85;;
13590;SDS011;6866;50.778;7.206;2023-09-18T06:35:24;10.98;;;2.08;;
13590;SDS011;6866;50.778;7.206;2023-09-18T06:37:50;9.52;;;2.30;;
13590;SDS011;6866;50.778;7.206;2023-09-18T06:40:16;6.22;;;2.30;;
13590;SDS011;6866;50.778;7.206;2023-09-18T06:42:42;7.85;;;2.05;;
13590;SDS011;6866;50.778;7.206;2023-09-18T06:45:08;8.13;;;1.90;;
13590;SDS011;6866;50.778;7.206;2023-09-18T06:47:34;5.60;;;1.95;;
13590;SDS011;6866;50.778;7.206;2023-09-18T06:49:59;7.53;;;1.90;;
13590;SDS011;6866;50.778;7.206;2023-09-18T06:52:25;6.70;;;2.00;;
13590;SDS011;6866;50.778;7.206;2023-09-18T06:54:52;7.57;;;1.88;;
13590;SDS011;6866;50.778;7.206;2023-09-18T06:57:18;5.03;;;1.80;;
13590;SDS011;6866;50.778;7.206;2023-09-18T06:59:46;10.05;;;2.00;;
13590;SDS011;6866;50.778;7.206;2023-09-18T07:02:11;8.32;;;1.98;;
13590;SDS011;6866;50.778;7.206;2023-09-18T07:04:40;7.68;;;2.00;;
13590;SDS011;6866;50.778;7.206;2023-09-18T07:07:10;5.95;;;1.50;;
13590;SDS011;6866;50.778;7.206;2023-09-18T07:09:37;7.32;;;1.80;;
13590;SDS011;6866;50.778;7.206;2023-09-18T07:12:03;5.07;;;1.65;;
13590;SDS011;6866;50.778;7.206;2023-09-18T07:14:29;8.25;;;1.70;;
13590;SDS011;6866;50.778;7.206;2023-09-18T07:16:55;4.03;;;1.52;;
13590;SDS011;6866;50.778;7.206;2023-09-18T07:19:27;6.15;;;1.50;;
13590;SDS011;6866;50.778;7.206;2023-09-18T07:21:52;5.95;;;1.63;;
13590;SDS011;6866;50.778;7.206;2023-09-18T07:24:19;6.32;;;1.73;;
13590;SDS011;6866;50.778;7.206;2023-09-18T07:26:48;5.13;;;1.63;;
13590;SDS011;6866;50.778;7.206;2023-09-18T07:29:13;5.75;;;1.33;;
13590;SDS011;6866;50.778;7.206;2023-09-18T07:31:40;5.53;;;1.88;;
13590;SDS011;6866;50.778;7.206;2023-09-18T07:34:09;8.00;;;1.85;;
13590;SDS011;6866;50.778;7.206;2023-09-18T07:36:35;7.70;;;1.73;;
13590;SDS011;6866;50.778;7.206;2023-09-18T07:39:01;5.75;;;1.80;;
13590;SDS011;6866;50.778;7.206;2023-09-18T07:41:27;5.28;;;1.70;;
13590;SDS011;6866;50.778;7.206;2023-09-18T07:43:52;5.20;;;1.60;;
13590;SDS011;6866;50.778;7.206;2023-09-18T07:46:18;5.50;;;1.88;;
13590;SDS011;6866;50.778;7.206;2023-09-18T07:48:43;7.13;;;1.80;;
13590;SDS011;6866;50.778;7.206;2023-09-18T07:51:12;3.35;;;1.50;;
13590;SDS011;6866;50.778;7.206;2023-09-18T07:53:39;5.55;;;1.60;;
13590;SDS011;6866;50.778;7.206;2023-09-18T07:56:04;5.65;;;1.58;;
13590;SDS011;6866;50.778;7.206;2023-09-18T07:58:30;7.15;;;1.70;;
13590;SDS011;6866;50.778;7.206;2023-09-18T08:00:58;5.22;;;1.73;;
13590;SDS011;6866;50.778;7.206;2023-09-18T08:03:24;4.72;;;1.35;;
13590;SDS011;6866;50.778;7.206;2023-09-18T08:05:51;3.97;;;1.50;;
13590;SDS011;6866;50.778;7.206;2023-09-18T08:08:17;5.47;;;1.73;;
13590;SDS011;6866;50.778;7.206;2023-09-18T08:10:45;6.53;;;1.70;;
13590;SDS011;6866;50.778;7.206;2023-09-18T08:13:14;6.78;;;1.80;;
13590;SDS011;6866;50.778;7.206;2023-09-18T08:15:40;4.57;;;1.48;;
13590;SDS011;6866;50.778;7.206;2023-09-18T08:18:05;7.43;;;1.83;;
13590;SDS011;6866;50.778;7.206;2023-09-18T08:20:31;4.65;;;1.40;;
13590;SDS011;6866;50.778;7.206;2023-09-18T08:22:58;6.35;;;2.00;;
13590;SDS011;6866;50.778;7.206;2023-09-18T08:25:26;5.20;;;1.80;;
13590;SDS011;6866;50.778;7.206;2023-09-18T08:27:52;5.55;;;1.70;;
13590;SDS011;6866;50.778;7.206;2023-09-18T08:30:17;5.55;;;1.60;;
13590;SDS011;6866;50.778;7.206;2023-09-18T08:32:46;6.78;;;2.10;;
13590;SDS011;6866;50.778;7.206;2023-09-18T08:35:12;5.57;;;2.00;;
13590;SDS011;6866;50.778;7.206;2023-09-18T08:37:39;4.38;;;1.65;;
13590;SDS011;6866;50.778;7.206;2023-09-18T08:40:06;6.93;;;1.52;;
13590;SDS011;6866;50.778;7.206;2023-09-18T08:42:35;4.97;;;1.70;;
13590;SDS011;6866;50.778;7.206;2023-09-18T08:45:02;4.43;;;1.70;;
13590;SDS011;6866;50.778;7.206;2023-09-18T08:47:34;5.88;;;2.03;;
13590;SDS011;6866;50.778;7.206;2023-09-18T08:50:00;4.53;;;1.70;;
13590;SDS011;6866;50.778;7.206;2023-09-18T08:52:27;5.40;;;1.75;;
13590;SDS011;6866;50.778;7.206;2023-09-18T08:54:53;7.32;;;1.60;;
13590;SDS011;6866;50.778;7.206;2023-09-18T08:57:21;5.78;;;1.58;;
13590;SDS011;6866;50.778;7.206;2023-09-18T08:59:46;5.85;;;1.90;;
13590;SDS011;6866;50.778;7.206;2023-09-18T09:02:15;6.40;;;1.75;;
13590;SDS011;6866;50.778;7.206;2023-09-18T09:04:41;3.95;;;1.70;;
13590;SDS011;6866;50.778;7.206;2023-09-18T09:07:06;5.53;;;1.90;;
13590;SDS011;6866;50.778;7.206;2023-09-18T09:09:32;3.47;;;1.52;;
13590;SDS011;6866;50.778;7.206;2023-09-18T09:11:58;3.70;;;1.40;;
13590;SDS011;6866;50.778;7.206;2023-09-18T09:14:24;7.05;;;1.90;;
13590;SDS011;6866;50.778;7.206;2023-09-18T09:19:28;8.73;;;1.98;;
13590;SDS011;6866;50.778;7.206;2023-09-18T09:22:00;6.20;;;1.63;;
13590;SDS011;6866;50.778;7.206;2023-09-18T09:24:35;5.28;;;1.70;;
13590;SDS011;6866;50.778;7.206;2023-09-18T09:27:05;6.18;;;1.63;;
13590;SDS011;6866;50.778;7.206;2023-09-18T09:29:33;6.80;;;1.83;;
13590;SDS011;6866;50.778;7.206;2023-09-18T09:32:12;5.90;;;1.65;;
13590;SDS011;6866;50.778;7.206;2023-09-18T09:34:38;4.82;;;1.52;;
13590;SDS011;6866;50.778;7.206;2023-09-18T09:37:05;6.75;;;1.95;;
13590;SDS011;6866;50.778;7.206;2023-09-18T09:39:31;7.35;;;1.75;;
13590;SDS011;6866;50.778;7.206;2023-09-18T09:41:59;6.20;;;1.60;;
13590;SDS011;6866;50.778;7.206;2023-09-18T09:44:26;7.95;;;2.20;;
13590;SDS011;6866;50.778;7.206;2023-09-18T09:46:53;5.05;;;1.88;;
13590;SDS011;6866;50.778;7.206;2023-09-18T09:49:19;5.70;;;1.73;;
13590;SDS011;6866;50.778;7.206;2023-09-18T09:51:46;5.95;;;1.95;;
13590;SDS011;6866;50.778;7.206;2023-09-18T09:54:11;6.40;;;2.00;;
13590;SDS011;6866;50.778;7.206;2023-09-18T09:56:41;4.60;;;1.40;;
13590;SDS011;6866;50.778;7.206;2023-09-18T09:59:10;6.70;;;1.95;;
13590;SDS011;6866;50.778;7.206;2023-09-18T10:01:37;5.22;;;1.92;;
13590;SDS011;6866;50.778;7.206;2023-09-18T10:04:04;7.40;;;2.13;;
13590;SDS011;6866;50.778;7.206;2023-09-18T10:06:34;5.38;;;1.40;;
13590;SDS011;6866;50.778;7.206;2023-09-18T10:09:02;5.00;;;1.52;;
13590;SDS011;6866;50.778;7.206;2023-09-18T10:11:30;5.93;;;1.58;;
13590;SDS011;6866;50.778;7.206;2023-09-18T10:14:08;4.78;;;1.73;;
13590;SDS011;6866;50.778;7.206;2023-09-18T10:16:38;3.80;;;1.38;;
13590;SDS011;6866;50.778;7.206;2023-09-18T10:24:25;5.68;;;1.65;;
13590;SDS011;6866;50.778;7.206;2023-09-18T10:26:59;4.85;;;1.40;;
13590;SDS011;6866;50.778;7.206;2023-09-18T10:29:29;5.43;;;1.40;;
13590;SDS011;6866;50.778;7.206;2023-09-18T10:31:57;4.88;;;1.50;;
13590;SDS011;6866;50.778;7.206;2023-09-18T10:34:24;8.95;;;1.60;;
13590;SDS011;6866;50.778;7.206;2023-09-18T10:36:50;3.35;;;1.52;;
13590;SDS011;6866;50.778;7.206;2023-09-18T10:39:17;5.43;;;1.30;;
13590;SDS011;6866;50.778;7.206;2023-09-18T10:41:48;5.60;;;1.30;;
13590;SDS011;6866;50.778;7.206;2023-09-18T10:44:16;5.75;;;1.30;;
13590;SDS011;6866;50.778;7.206;2023-09-18T10:46:43;4.35;;;1.30;;
13590;SDS011;6866;50.778;7.206;2023-09-18T10:49:13;3.10;;;1.20;;
13590;SDS011;6866;50.778;7.206;2023-09-18T10:51:42;5.82;;;1.25;;
13590;SDS011;6866;50.778;7.206;2023-09-18T10:54:08;5.00;;;1.20;;
13590;SDS011;6866;50.778;7.206;2023-09-18T10:56:35;5.05;;;1.38;;
13590;SDS011;6866;50.778;7.206;2023-09-18T10:59:01;4.53;;;1.30;;
13590;SDS011;6866;50.778;7.206;2023-09-18T11:01:30;2.88;;;1.00;;
13590;SDS011;6866;50.778;7.206;2023-09-18T11:04:05;2.95;;;1.00;;
13590;SDS011;6866;50.778;7.206;2023-09-18T11:09:19;4.93;;;1.17;;
13590;SDS011;6866;50.778;7.206;2023-09-18T11:11:54;3.72;;;1.10;;
13590;SDS011;6866;50.778;7.206;2023-09-18T11:22:48;4.47;;;1.20;;
13590;SDS011;6866;50.778;7.206;2023-09-18T11:25:30;4.45;;;1.10;;
13590;SDS011;6866;50.778;7.206;2023-09-18T11:27:56;4.32;;;1.27;;
13590;SDS011;6866;50.778;7.206;2023-09-18T11:30:22;2.97;;;1.30;;
13590;SDS011;6866;50.778;7.206;2023-09-18T11:32:51;3.72;;;1.10;;
13590;SDS011;6866;50.778;7.206;2023-09-18T11:35:17;3.47;;;1.10;;
13590;SDS011;6866;50.778;7.206;2023-09-18T11:37:44;6.03;;;1.30;;
13590;SDS011;6866;50.778;7.206;2023-09-18T11:40:30;3.28;;;1.20;;
13590;SDS011;6866;50.778;7.206;2023-09-18T11:43:18;3.42;;;1.30;;
13590;SDS011;6866;50.778;7.206;2023-09-18T11:45:44;4.25;;;1.30;;
13590;SDS011;6866;50.778;7.206;2023-09-18T11:48:12;3.53;;;1.30;;
13590;SDS011;6866;50.778;7.206;2023-09-18T11:50:40;6.25;;;1.33;;
13590;SDS011;6866;50.778;7.206;2023-09-18T11:53:06;4.07;;;1.58;;
13590;SDS011;6866;50.778;7.206;2023-09-18T11:55:32;2.97;;;1.30;;
13590;SDS011;6866;50.778;7.206;2023-09-18T11:57:58;4.20;;;1.20;;
13590;SDS011;6866;50.778;7.206;2023-09-18T12:00:26;2.83;;;1.17;;
13590;SDS011;6866;50.778;7.206;2023-09-18T12:02:54;4.93;;;1.38;;
13590;SDS011;6866;50.778;7.206;2023-09-18T12:05:20;2.90;;;0.95;;
13590;SDS011;6866;50.778;7.206;2023-09-18T12:07:46;4.10;;;1.20;;
13590;SDS011;6866;50.778;7.206;2023-09-18T12:10:14;3.53;;;1.42;;
13590;SDS011;6866;50.778;7.206;2023-09-18T12:12:42;3.30;;;1.23;;
13590;SDS011;6866;50.778;7.206;2023-09-18T12:15:10;5.88;;;1.45;;
13590;SDS011;6866;50.778;7.206;2023-09-18T12:17:36;3.75;;;1.30;;
13590;SDS011;6866;50.778;7.206;2023-09-18T12:20:02;5.70;;;1.50;;
13590;SDS011;6866;50.778;7.206;2023-09-18T12:22:29;3.70;;;1.35;;
13590;SDS011;6866;50.778;7.206;2023-09-18T12:25:12;6.82;;;1.40;;
13590;SDS011;6866;50.778;7.206;2023-09-18T12:27:45;4.57;;;1.40;;
13590;SDS011;6866;50.778;7.206;2023-09-18T12:30:11;3.50;;;1.20;;
13590;SDS011;6866;50.778;7.206;2023-09-18T12:32:45;5.20;;;1.17;;
13590;SDS011;6866;50.778;7.206;2023-09-18T12:35:13;4.28;;;1.30;;
13590;SDS011;6866;50.778;7.206;2023-09-18T12:37:39;8.02;;;1.55;;
13590;SDS011;6866;50.778;7.206;2023-09-18T12:40:06;4.30;;;1.20;;
13590;SDS011;6866;50.778;7.206;2023-09-18T12:42:53;8.60;;;2.15;;
13590;SDS011;6866;50.778;7.206;2023-09-18T12:45:20;3.30;;;1.30;;
13590;SDS011;6866;50.778;7.206;2023-09-18T12:47:47;4.47;;;1.35;;
13590;SDS011;6866;50.778;7.206;2023-09-18T12:50:13;5.22;;;1.38;;
13590;SDS011;6866;50.778;7.206;2023-09-18T12:52:39;4.07;;;1.60;;
13590;SDS011;6866;50.778;7.206;2023-09-18T12:55:05;4.22;;;1.60;;
13590;SDS011;6866;50.778;7.206;2023-09-18T12:57:31;4.47;;;1.38;;
13590;SDS011;6866;50.778;7.206;2023-09-18T12:59:58;3.67;;;1.40;;
13590;SDS011;6866;50.778;7.206;2023-09-18T13:02:23;4.50;;;1.40;;
13590;SDS011;6866;50.778;7.206;2023-09-18T13:04:53;3.65;;;1.60;;
13590;SDS011;6866;50.778;7.206;2023-09-18T13:07:20;5.75;;;1.50;;
13590;SDS011;6866;50.778;7.206;2023-09-18T13:09:59;3.22;;;1.40;;
13590;SDS011;6866;50.778;7.206;2023-09-18T13:12:25;5.45;;;1.30;;
13590;SDS011;6866;50.778;7.206;2023-09-18T13:15:11;3.83;;;1.27;;
13590;SDS011;6866;50.778;7.206;2023-09-18T13:17:44;4.22;;;1.30;;
13590;SDS011;6866;50.778;7.206;2023-09-18T13:20:24;4.35;;;1.52;;
13590;SDS011;6866;50.778;7.206;2023-09-18T13:22:54;3.03;;;1.10;;
13590;SDS011;6866;50.778;7.206;2023-09-18T13:25:21;2.92;;;1.35;;
13590;SDS011;6866;50.778;7.206;2023-09-18T13:27:49;2.88;;;1.40;;
13590;SDS011;6866;50.778;7.206;2023-09-18T13:30:16;2.80;;;1.38;;
13590;SDS011;6866;50.778;7.206;2023-09-18T13:32:43;3.92;;;1.50;;
13590;SDS011;6866;50.778;7.206;2023-09-18T13:35:09;5.57;;;1.52;;
13590;SDS011;6866;50.778;7.206;2023-09-18T13:37:37;6.20;;;1.33;;
13590;SDS011;6866;50.778;7.206;2023-09-18T13:40:04;2.72;;;1.38;;
13590;SDS011;6866;50.778;7.206;2023-09-18T13:42:32;4.75;;;1.50;;
13590;SDS011;6866;50.778;7.206;2023-09-18T13:44:58;5.13;;;1.50;;
13590;SDS011;6866;50.778;7.206;2023-09-18T13:47:29;4.25;;;1.35;;
13590;SDS011;6866;50.778;7.206;2023-09-18T13:49:55;4.35;;;1.42;;
13590;SDS011;6866;50.778;7.206;2023-09-18T13:52:27;7.22;;;1.38;;
13590;SDS011;6866;50.778;7.206;2023-09-18T13:54:57;3.20;;;1.25;;
13590;SDS011;6866;50.778;7.206;2023-09-18T13:57:23;5.75;;;1.40;;
13590;SDS011;6866;50.778;7.206;2023-09-18T13:59:49;3.67;;;1.50;;
13590;SDS011;6866;50.778;7.206;2023-09-18T14:02:16;3.75;;;1.50;;
13590;SDS011;6866;50.778;7.206;2023-09-18T14:04:43;5.63;;;1.48;;
13590;SDS011;6866;50.778;7.206;2023-09-18T14:07:09;3.70;;;1.40;;
13590;SDS011;6866;50.778;7.206;2023-09-18T14:09:36;3.22;;;1.40;;
13590;SDS011;6866;50.778;7.206;2023-09-18T14:12:02;4.80;;;1.58;;
13590;SDS011;6866;50.778;7.206;2023-09-18T14:14:28;3.83;;;1.20;;
13590;SDS011;6866;50.778;7.206;2023-09-18T14:16:54;4.85;;;1.55;;
13590;SDS011;6866;50.778;7.206;2023-09-18T14:19:20;3.63;;;1.27;;
13590;SDS011;6866;50.778;7.206;2023-09-18T14:21:46;3.78;;;1.40;;
13590;SDS011;6866;50.778;7.206;2023-09-18T14:24:14;4.55;;;2.78;;
13590;SDS011;6866;50.778;7.206;2023-09-18T14:26:40;4.05;;;1.55;;
13590;SDS011;6866;50.778;7.206;2023-09-18T14:29:09;4.43;;;1.60;;
13590;SDS011;6866;50.778;7.206;2023-09-18T14:31:38;2.70;;;1.17;;
13590;SDS011;6866;50.778;7.206;2023-09-18T14:34:04;3.03;;;1.35;;
13590;SDS011;6866;50.778;7.206;2023-09-18T14:36:33;5.22;;;1.35;;
13590;SDS011;6866;50.778;7.206;2023-09-18T14:39:00;3.97;;;1.27;;
13590;SDS011;6866;50.778;7.206;2023-09-18T14:41:26;5.40;;;1.80;;
13590;SDS011;6866;50.778;7.206;2023-09-18T14:43:52;4.18;;;1.60;;
13590;SDS011;6866;50.778;7.206;2023-09-18T14:46:18;3.70;;;1.25;;
13590;SDS011;6866;50.778;7.206;2023-09-18T14:48:44;5.10;;;1.58;;
13590;SDS011;6866;50.778;7.206;2023-09-18T14:51:10;7.18;;;1.55;;
13590;SDS011;6866;50.778;7.206;2023-09-18T14:53:36;4.35;;;1.50;;
13590;SDS011;6866;50.778;7.206;2023-09-18T14:56:02;4.35;;;1.60;;
13590;SDS011;6866;50.778;7.206;2023-09-18T14:58:29;8.95;;;3.17;;
13590;SDS011;6866;50.778;7.206;2023-09-18T15:00:55;6.40;;;1.60;;
13590;SDS011;6866;50.778;7.206;2023-09-18T15:03:21;3.67;;;1.52;;
13590;SDS011;6866;50.778;7.206;2023-09-18T15:05:49;8.30;;;1.73;;
13590;SDS011;6866;50.778;7.206;2023-09-18T15:08:16;5.68;;;1.50;;
13590;SDS011;6866;50.778;7.206;2023-09-18T15:10:43;5.05;;;1.45;;
13590;SDS011;6866;50.778;7.206;2023-09-18T15:13:08;3.90;;;1.30;;
13590;SDS011;6866;50.778;7.206;2023-09-18T15:15:34;2.60;;;1.20;;
13590;SDS011;6866;50.778;7.206;2023-09-18T15:18:00;4.03;;;1.55;;
13590;SDS011;6866;50.778;7.206;2023-09-18T15:20:26;2.95;;;1.30;;